createdAt,value
2022-11-23T20:44:54.037Z,8.69
2022-11-23T20:45:53.892Z,8.66
2022-11-23T20:47:01.641Z,8.71
2022-11-23T20:47:53.768Z,8.69
2022-11-23T20:48:53.779Z,8.64
2022-11-23T20:49:53.647Z,8.63
2022-11-23T20:50:53.650Z,8.64
2022-11-23T20:51:53.533Z,8.64
2022-11-23T20:52:53.531Z,8.57
2022-11-23T20:53:53.532Z,8.59
2022-11-23T20:54:53.412Z,8.63
2022-11-23T20:55:53.417Z,8.54
2022-11-23T20:56:53.294Z,8.59
2022-11-23T20:57:53.298Z,8.54
2022-11-23T20:58:53.178Z,8.57
2022-11-23T20:59:53.181Z,8.57
2022-11-23T21:00:53.203Z,8.59
2022-11-23T21:01:53.100Z,8.63
2022-11-23T21:02:53.133Z,8.61
2022-11-23T21:03:52.947Z,8.57
2022-11-23T21:04:52.943Z,8.52
2022-11-23T21:05:52.949Z,8.56
2022-11-23T21:06:52.913Z,8.63
2022-11-23T21:07:52.982Z,8.57
2022-11-23T21:08:52.706Z,8.50
2022-11-23T21:09:52.713Z,8.54
2022-11-23T21:10:52.709Z,8.60
2022-11-23T21:11:52.599Z,8.61
2022-11-23T21:12:52.597Z,8.59
2022-11-23T21:13:52.473Z,8.59
2022-11-23T21:14:52.476Z,8.54
2022-11-23T21:15:52.562Z,8.60
2022-11-23T21:16:52.377Z,8.49
2022-11-23T21:17:52.363Z,8.60
2022-11-23T21:18:52.237Z,8.56
2022-11-23T21:19:52.242Z,8.52
2022-11-23T21:20:52.239Z,8.49
2022-11-23T21:21:52.122Z,8.54
2022-11-23T21:22:52.121Z,8.50
2022-11-23T21:23:52.505Z,8.54
2022-11-23T21:24:52.006Z,8.50
2022-11-23T21:25:52.010Z,8.49
2022-11-23T21:26:51.898Z,8.53
2022-11-23T21:27:51.888Z,8.52
2022-11-23T21:28:51.890Z,8.53
2022-11-23T21:29:51.776Z,8.49
2022-11-23T21:30:51.771Z,8.50
2022-11-23T21:31:51.721Z,8.56
2022-11-23T21:32:51.678Z,8.61
2022-11-23T21:33:54.010Z,8.49
2022-11-23T21:34:51.538Z,8.57
2022-11-23T21:35:51.535Z,8.56
2022-11-23T21:36:51.420Z,8.49
2022-11-23T21:37:51.418Z,8.49
2022-11-23T21:38:51.417Z,8.59
2022-11-23T21:39:53.177Z,8.56
2022-11-23T21:40:51.311Z,8.54
2022-11-23T21:41:51.182Z,8.57
2022-11-23T21:42:51.186Z,8.60
2022-11-23T21:43:51.194Z,8.60
2022-11-23T21:44:51.066Z,8.56
2022-11-23T21:45:51.067Z,8.49
2022-11-23T21:46:51.207Z,8.53
2022-11-23T21:47:50.949Z,8.53
2022-11-23T21:48:50.974Z,8.56
2022-11-23T21:49:50.834Z,8.56
2022-11-23T21:50:50.829Z,8.49
2022-11-23T21:51:50.799Z,8.54
2022-11-23T21:52:50.714Z,8.52
2022-11-23T21:53:50.718Z,8.52
2022-11-23T21:54:50.612Z,8.49
2022-11-23T21:55:50.597Z,8.52
2022-11-23T21:56:50.605Z,8.50
2022-11-23T21:57:50.600Z,8.46
2022-11-23T21:58:50.482Z,8.42
2022-11-23T21:59:50.373Z,8.45
2022-11-23T22:00:50.492Z,8.45
2022-11-23T22:01:50.388Z,8.50
2022-11-23T22:02:50.248Z,8.46
2022-11-23T22:03:50.244Z,8.54
2022-11-23T22:04:50.145Z,8.52
2022-11-23T22:05:50.126Z,8.46
2022-11-23T22:06:50.133Z,8.45
2022-11-23T22:08:13.661Z,8.49
2022-11-23T22:09:49.985Z,8.41
2022-11-23T22:10:49.890Z,8.45
2022-11-23T22:11:49.894Z,8.41
2022-11-23T22:12:49.776Z,8.38
2022-11-23T22:13:49.773Z,8.38
2022-11-23T22:14:49.658Z,8.39
2022-11-23T22:15:49.739Z,8.42
2022-11-23T22:16:49.991Z,8.39
2022-11-23T22:17:49.539Z,8.46
2022-11-23T22:18:55.188Z,8.35
2022-11-23T22:19:49.549Z,8.49
2022-11-23T22:20:49.445Z,8.46
2022-11-23T22:21:49.422Z,8.41
2022-11-23T22:22:49.306Z,8.44
2022-11-23T22:23:49.308Z,8.41
2022-11-23T22:24:49.307Z,8.41
2022-11-23T22:25:49.392Z,8.46
2022-11-23T22:26:49.194Z,8.46
2022-11-23T22:27:49.076Z,8.41
2022-11-23T22:28:49.321Z,8.38
2022-11-23T22:29:49.070Z,8.38
2022-11-23T22:30:48.953Z,8.36
2022-11-23T22:31:49.087Z,8.41
2022-11-23T22:32:48.922Z,8.46
2022-11-23T22:33:48.838Z,8.36
2022-11-23T22:34:48.838Z,8.44
2022-11-23T22:35:48.717Z,8.41
2022-11-23T22:36:48.743Z,8.41
2022-11-23T22:37:48.608Z,8.52
2022-11-23T22:38:48.602Z,8.42
2022-11-23T22:39:48.600Z,8.50
2022-11-23T22:40:48.484Z,8.39
2022-11-23T22:41:48.482Z,8.39
2022-11-23T22:42:48.454Z,8.50
2022-11-23T22:43:48.367Z,8.46
2022-11-23T22:44:48.371Z,8.49
2022-11-23T22:45:48.443Z,8.49
2022-11-23T22:46:48.251Z,8.52
2022-11-23T22:47:48.252Z,8.44
2022-11-23T22:48:48.131Z,8.46
2022-11-23T22:49:48.131Z,8.49
2022-11-23T22:50:48.017Z,8.53
2022-11-23T22:51:48.015Z,8.49
2022-11-23T22:52:48.034Z,8.52
2022-11-23T22:53:47.899Z,8.50
2022-11-23T22:54:47.911Z,8.63
2022-11-23T22:55:47.776Z,8.63
2022-11-23T22:56:47.779Z,8.59
2022-11-23T22:57:47.781Z,8.61
2022-11-23T22:58:47.662Z,8.59
2022-11-23T23:00:47.541Z,8.59
2022-11-23T23:01:47.547Z,8.68
2022-11-23T23:02:47.664Z,8.74
2022-11-23T23:03:47.517Z,8.68
2022-11-23T23:04:47.429Z,8.66
2022-11-23T23:05:47.310Z,8.71
2022-11-23T23:06:47.312Z,8.64
2022-11-23T23:07:47.375Z,8.69
2022-11-23T23:08:47.216Z,8.68
2022-11-23T23:09:47.204Z,8.77
2022-11-23T23:10:47.195Z,8.68
2022-11-23T23:11:47.076Z,8.82
2022-11-23T23:12:47.074Z,8.81
2022-11-23T23:13:46.963Z,8.77
2022-11-23T23:14:46.960Z,8.75
2022-11-23T23:15:46.962Z,8.71
2022-11-23T23:16:46.927Z,8.82
2022-11-23T23:17:46.843Z,8.90
2022-11-23T23:18:46.726Z,8.89
2022-11-23T23:19:46.724Z,8.86
2022-11-23T23:20:46.734Z,8.96
2022-11-23T23:21:46.607Z,8.87
2022-11-23T23:22:46.605Z,8.90
2022-11-23T23:23:46.492Z,8.86
2022-11-23T23:24:46.507Z,8.89
2022-11-23T23:25:46.492Z,8.97
2022-11-23T23:26:46.369Z,8.96
2022-11-23T23:27:46.374Z,8.96
2022-11-23T23:28:46.250Z,8.96
2022-11-23T23:29:46.263Z,8.97
2022-11-23T23:30:46.256Z,8.99
2022-11-23T23:31:46.204Z,9.00
2022-11-23T23:32:46.136Z,8.87
2022-11-23T23:33:46.138Z,8.96
2022-11-23T23:34:46.021Z,8.95
2022-11-23T23:35:46.024Z,9.00
2022-11-23T23:36:45.900Z,8.96
2022-11-23T23:37:45.903Z,8.92
2022-11-23T23:38:45.904Z,8.99
2022-11-23T23:39:45.785Z,9.00
2022-11-23T23:40:45.815Z,8.97
2022-11-23T23:41:45.667Z,8.89
2022-11-23T23:42:45.673Z,8.89
2022-11-23T23:43:45.669Z,8.96
2022-11-23T23:44:45.548Z,8.90
2022-11-23T23:45:45.595Z,8.86
2022-11-23T23:46:45.436Z,8.96
2022-11-23T23:47:45.434Z,8.89
2022-11-23T23:48:45.447Z,8.86
2022-11-23T23:49:45.314Z,8.93
2022-11-23T23:50:45.407Z,8.93
2022-11-23T23:51:50.132Z,8.82
2022-11-23T23:52:45.195Z,8.82
2022-11-23T23:53:45.210Z,8.84
2022-11-23T23:54:45.076Z,8.89
2022-11-23T23:55:45.081Z,8.84
2022-11-23T23:56:45.098Z,8.81
2022-11-23T23:57:45.026Z,8.86
2022-11-23T23:58:44.963Z,8.81
2022-11-23T23:59:44.847Z,8.75
